Latest Coastal Weather Observations for Wynyard

IDT60701

Issued at 6:02 pm EST Wednesday 4 May 2016 (issued every 10 minutes, with the page automatically refreshed every 10 minutes)

About coastal observations | Map of coastal stations | Coastal observations for TAS | Marine services | Other Formats
Station Details ID: 091107 Name: WYNYARD AIRPORT Lat: -41.00 Lon: 145.73 Height: 12.0 m
Data from the previous 72 hours. | See also: Recent months at Wynyard
Date/Time
EST
Temp

°C
Wind Pressure Rain
since 9am
mm
Weather Cloud Vis
km
Sea
Height
m
Swell
Dir
 
Speed
knots
Gust
knots
hPa Trend Height
m
Period
s
Dir
04/06:00pm 12.8 NW 15 17 1010.5 - - - Mostly clear 3 - - - -
04/05:30pm 12.8 WNW 12 18 1010.3 - 0.4 - Partly cloudy 10 - - - -
04/05:00pm 12.8 WNW 11 14 1010.0 - 0.4 - Partly cloudy 10 - - - -
04/04:30pm 13.3 NW 8 14 1010.0 - 0.4 - Partly cloudy 10 - - - -
04/04:00pm 12.9 WNW 12 17 1010.0 - 0.4 - Partly cloudy 10 - - - -
04/03:47pm 13.0 WNW 15 26 1010.0 - 0.4 - Partly cloudy 10 - - - -
04/03:30pm 13.7 WNW 11 15 1009.7 - 0.4 - Partly cloudy 10 - - - -
04/03:00pm 13.5 WNW 12 18 1009.7 - 0.4 - Cloudy 10 - - - -
04/02:30pm 13.4 WNW 12 17 1009.6 - 0.4 - Partly cloudy 10 - - - -
04/02:13pm 13.1 WNW 15 26 1009.9 - 0.4 - Partly cloudy 8 - - - -
04/02:00pm 13.4 WNW 11 17 1009.6 - 0.4 - Partly cloudy 10 - - - -
04/01:30pm 12.9 WNW 13 16 1009.5 - 0.4 - Partly cloudy 10 - - - -
04/01:00pm 14.3 WNW 11 15 1009.6 - 0.2 - - 10 - - - -
04/12:30pm 12.4 WNW 11 15 1009.8 - 0.2 - Partly cloudy 10 - - - -
04/12:00pm 12.3 W 11 13 1010.1 - 0.0 - Cloudy 10 - - - -
04/11:30am 13.5 WNW 15 20 1010.1 - 0.0 - Partly cloudy 10 - - - -
04/11:00am 13.3 WNW 15 23 1010.1 - 0.0 - - 10 - - - -
04/10:30am 12.6 WNW 14 19 1010.1 - 0.0 - Partly cloudy 10 - - - -
04/10:00am 12.7 W 10 13 1010.2 - 0.0 - Partly cloudy 10 - - - -
04/09:30am 10.6 WSW 7 8 1010.1 - 0.0 - Partly cloudy 10 - - - -
04/09:00am 8.8 WSW 4 6 1009.9 - 11.6 - Partly cloudy 10 - - - -
04/08:30am 7.1 WSW 5 7 1009.8 - 11.6 - - 10 - - - -
04/08:00am 5.5 NW 4 5 1009.5 - 11.6 - - 10 - - - -
04/07:30am 2.6 W 2 7 1009.0 - 11.6 - Partly cloudy 10 - - - -
04/07:00am 3.3 CALM 0 3 1008.1 - 11.6 - - 10 - - - -
04/06:30am 4.2 WNW 3 4 1007.3 - 11.6 - - 10 - - - -
04/06:00am 4.7 WSW 4 5 1006.8 - 11.6 - - 10 - - - -
04/05:30am 6.2 W 9 11 1006.3 - 11.6 - - 10 - - - -
04/05:00am 6.5 WNW 10 14 1005.5 - 11.6 - - 10 - - - -
04/04:30am 5.2 SW 8 11 1005.0 - 11.6 - Partly cloudy 10 - - - -
04/04:00am 4.6 WSW 6 8 1004.7 - 11.6 - - 10 - - - -
04/03:30am 4.8 WNW 7 9 1004.4 - 11.6 - Partly cloudy 10 - - - -
04/03:00am 4.5 W 6 7 1003.9 - 11.6 - - 10 - - - -
04/02:30am 6.6 NW 8 10 1003.2 - 11.6 - - 10 - - - -
04/02:00am 6.1 WNW 7 8 1002.6 - 11.6 - - 10 - - - -
04/01:30am 6.6 W 8 11 1002.2 - 11.6 - - 10 - - - -
04/01:00am 6.4 W 6 10 1002.0 - 11.6 - Partly cloudy 10 - - - -
04/12:30am 7.5 W 10 13 1001.9 - 11.6 - Partly cloudy 10 - - - -
04/12:00am 6.5 W 7 8 1001.7 - 11.4 - Cloudy 10 - - - -
 
Date/Time
EST
Temp

°C
Wind Pressure Rain
since 9am
mm
Weather Cloud Vis
km
Sea
Height
m
Swell
Dir
 
Speed
knots
Gust
knots
hPa Trend Height
m
Period
s
Dir
03/11:30pm 6.9 W 8 10 1001.1 - 11.4 - Partly cloudy 10 - - - -
03/11:00pm 7.0 W 8 10 1000.9 - 11.4 - Partly cloudy 10 - - - -
03/10:30pm 7.3 W 7 8 1000.7 - 11.4 - Partly cloudy 10 - - - -
03/10:00pm 7.4 W 11 15 1000.6 - 11.4 - Partly cloudy 10 - - - -
03/09:55pm 7.7 W 13 20 1000.6 - 11.4 - Partly cloudy 10 - - - -
03/09:45pm 8.0 W 18 29 1000.4 - 11.4 - Partly cloudy 5 - - - -
03/09:37pm 8.4 W 15 29 1000.8 - 11.0 - Partly cloudy 10 - - - -
03/09:30pm 8.5 W 15 22 1000.2 - 10.8 - Partly cloudy 10 - - - -
03/09:01pm 8.7 W 16 27 999.9 - 10.8 - Partly cloudy 10 - - - -
03/09:00pm 8.6 W 16 23 999.8 - 10.8 - Cloudy 10 - - - -
03/08:49pm 8.0 W 9 20 999.5 - 10.8 - Partly cloudy 10 - - - -
03/08:30pm 7.1 W 4 5 999.1 - 10.8 - - 10 - - - -
03/08:00pm 7.8 WNW 10 16 998.6 - 10.8 - Partly cloudy 10 - - - -
03/07:30pm 7.7 WNW 12 15 998.2 - 10.8 - Partly cloudy 10 - - - -
03/07:22pm 7.7 WNW 13 19 998.1 - 10.8 - Partly cloudy 10 - - - -
03/07:08pm 7.9 WSW 16 31 998.0 - 10.6 - Partly cloudy 5 - - - -
03/07:06pm 8.1 WSW 16 31 998.3 - 10.6 - Partly cloudy 7 - - - -
03/07:04pm 8.2 WSW 14 31 998.3 - 10.6 - Partly cloudy 10 - - - -
03/07:00pm 8.0 W 9 13 998.3 - 10.4 - Partly cloudy 10 - - - -
03/06:30pm 8.0 W 11 15 996.9 - 10.4 - Partly cloudy 10 - - - -
03/06:24pm 8.2 W 12 16 996.8 - 10.4 - Partly cloudy 10 - - - -
03/06:06pm 8.5 W 9 19 996.6 - 10.4 - Partly cloudy 5 - - - -
03/06:00pm 8.6 W 9 13 996.3 - 9.2 - Cloudy 10 - - - -
03/05:30pm 9.1 W 14 21 995.4 - 9.2 - Partly cloudy 10 - - - -
03/05:00pm 9.5 W 10 13 994.9 - 9.2 - Partly cloudy 10 - - - -
03/04:30pm 9.8 W 14 20 994.0 - 9.2 - Partly cloudy 10 - - - -
03/04:00pm 9.4 WSW 11 15 993.5 - 9.2 - Partly cloudy 10 - - - -
03/03:30pm 9.8 W 12 17 993.4 - 9.0 - Partly cloudy 10 - - - -
03/03:00pm 10.2 W 17 24 992.1 - 8.6 Recent precip. Cloudy 10 - - - -
03/02:30pm 10.8 W 15 20 992.0 - 8.6 - Partly cloudy 10 - - - -
03/02:00pm 11.9 WNW 16 23 991.2 - 8.0 - Partly cloudy 10 - - - -
03/01:30pm 12.9 WNW 18 25 991.3 - 8.0 - Partly cloudy 10 - - - -
03/01:00pm 12.8 WNW 15 19 991.6 - 8.0 - Partly cloudy 10 - - - -
03/12:30pm 12.5 WNW 14 19 991.8 - 8.0 - Partly cloudy 10 - - - -
03/12:00pm 13.1 WNW 11 16 991.8 - 8.0 Recent precip. Cloudy 10 - - - -
03/11:30am 13.1 W 11 14 991.5 - 7.8 - Partly cloudy 10 - - - -
03/11:00am 13.0 WNW 15 21 991.2 - 7.8 - Partly cloudy 10 - - - -
03/10:30am 12.6 WNW 10 15 991.5 - 7.0 - Partly cloudy 10 - - - -
03/10:23am 12.7 W 9 13 991.3 - 6.8 - Partly cloudy 10 - - - -
03/10:12am 13.0 W 11 15 991.0 - 6.6 - Partly cloudy 5 - - - -
03/10:00am 13.0 WNW 19 34 991.0 - 5.8 - Partly cloudy 2 - - - -
03/09:54am 13.4 NW 25 38 990.9 - 4.8 - Partly cloudy 2 - - - -
03/09:30am 13.9 NNW 23 33 990.8 - 2.4 - Partly cloudy 3 - - - -
03/09:23am 14.1 NNW 20 31 990.8 - 1.6 - Partly cloudy 3 - - - -
03/09:00am 14.0 NW 20 27 991.1 - 14.4 Rain Cloudy 4 - - - -
03/08:35am 13.7 NW 16 21 991.6 - 12.8 - Partly cloudy 5 - - - -
03/08:31am 13.7 NW 15 20 991.7 - 12.4 - Partly cloudy 5 - - - -
03/08:30am 13.6 NW 15 21 991.7 - 12.4 - Partly cloudy 6 - - - -
03/08:24am 13.5 NW 14 21 991.7 - 12.0 - Partly cloudy 6 - - - -
03/08:16am 13.3 NW 15 25 991.6 - 11.8 - Partly cloudy 6 - - - -
03/08:00am 13.6 NW 13 21 992.0 - 11.4 - Partly cloudy 6 - - - -
03/07:58am 13.5 NW 12 21 992.0 - 11.4 - Partly cloudy 6 - - - -
03/07:56am 13.3 NW 12 17 992.1 - 11.2 - Partly cloudy 7 - - - -
03/07:46am 13.1 WNW 14 20 992.1 - 11.0 - Partly cloudy 5 - - - -
03/07:39am 13.0 WNW 13 17 992.5 - 10.4 - Partly cloudy 5 - - - -
03/07:30am 13.2 NW 12 17 992.4 - 9.8 - Partly cloudy 7 - - - -
03/07:00am 13.0 NW 15 22 992.5 - 8.4 - Partly cloudy 9 - - - -
03/06:30am 13.4 WNW 14 21 992.9 - 7.4 - Partly cloudy 10 - - - -
03/06:09am 13.5 WNW 18 25 992.8 - 7.0 - Partly cloudy 10 - - - -
03/06:00am 13.8 WNW 21 30 992.8 - 7.0 Rain Mostly cloudy 6 - - - -
03/05:53am 14.2 WNW 25 35 992.8 - 6.6 - Partly cloudy 4 - - - -
03/05:45am 14.7 NW 29 43 992.3 - 6.0 - Partly cloudy 2 - - - -
03/05:30am 15.0 NW 26 41 991.9 - 3.4 - Partly cloudy 3 - - - -
03/05:24am 15.4 NNW 26 41 991.8 - 2.6 - Partly cloudy 5 - - - -
03/05:23am 15.4 NNW 26 41 991.7 - 2.6 - Partly cloudy 6 - - - -
03/05:00am 14.4 NW 28 40 992.2 - 2.4 - Partly cloudy 2 - - - -
03/04:43am 15.5 NW 28 41 992.1 - 1.4 - Partly cloudy 5 - - - -
03/04:30am 15.9 NNW 30 50 992.2 - 1.2 - Partly cloudy 7 - - - -
03/04:23am 16.1 NNW 30 50 992.2 - 1.2 - Partly cloudy 9 - - - -
03/04:06am 15.3 NW 30 42 992.7 - 1.2 - Partly cloudy 5 - - - -
03/04:00am 15.6 NW 32 51 992.8 - 1.0 - Partly cloudy 8 - - - -
03/03:51am 16.0 NW 29 51 992.8 - 1.0 - Partly cloudy 6 - - - -
03/03:36am 15.9 NW 26 39 993.0 - 1.0 - Partly cloudy 7 - - - -
03/03:30am 15.7 NW 25 39 993.2 - 1.0 - Partly cloudy 7 - - - -
03/03:16am 15.4 NW 28 44 993.6 - 1.0 - Partly cloudy 5 - - - -
03/03:00am 16.0 NW 30 49 993.8 - 1.0 - Cloudy 10 - - - -
03/02:49am 16.0 NW 26 42 994.0 - 1.0 - Partly cloudy 10 - - - -
03/02:30am 15.7 NW 29 45 994.5 - 1.0 - Partly cloudy 5 - - - -
03/02:22am 15.7 NW 27 47 994.7 - 1.0 - Partly cloudy 5 - - - -
03/02:00am 16.9 NNW 26 39 994.7 - 1.0 - Partly cloudy 10 - - - -
03/01:30am 16.7 NNW 28 38 995.4 - 1.0 - Partly cloudy 10 - - - -
03/01:00am 16.8 NNW 25 38 996.4 - 1.0 - Partly cloudy 10 - - - -
03/12:30am 16.6 NW 25 40 996.8 - 1.0 - Partly cloudy 10 - - - -
03/12:00am 16.5 NNW 22 33 997.3 - 1.0 - Cloudy 10 - - - -
 
Date/Time
EST
Temp

°C
Wind Pressure Rain
since 9am
mm
Weather Cloud Vis
km
Sea
Height
m
Swell
Dir
 
Speed
knots
Gust
knots
hPa Trend Height
m
Period
s
Dir
02/11:30pm 16.5 NW 23 35 997.9 - 1.0 - Partly cloudy 10 - - - -
02/11:00pm 16.7 NW 24 37 998.5 - 1.0 - Partly cloudy 10 - - - -
02/10:30pm 16.7 NW 24 39 998.7 - 1.0 - Partly cloudy 10 - - - -
02/10:00pm 16.8 NNW 25 43 999.3 - 1.0 - Partly cloudy 10 - - - -
02/09:30pm 16.6 NW 23 38 999.8 - 1.0 - Partly cloudy 10 - - - -
02/09:00pm 16.6 NNW 24 35 999.9 - 1.0 - Cloudy 10 - - - -
02/08:31pm 16.6 NW 22 33 1000.5 - 1.0 - Partly cloudy 10 - - - -
02/08:30pm 16.5 NW 21 29 1000.6 - 1.0 - Partly cloudy 10 - - - -
02/08:01pm 16.3 NW 20 30 1001.0 - 1.0 - Partly cloudy 10 - - - -
02/08:00pm 16.2 NW 21 30 1001.0 - 1.0 - Partly cloudy 10 - - - -
02/07:32pm 16.1 NW 21 31 1001.3 - 1.0 - Partly cloudy 10 - - - -
02/07:30pm 16.2 NW 22 31 1001.3 - 1.0 - Partly cloudy 10 - - - -
02/07:09pm 16.1 NW 21 31 1001.1 - 1.0 - Partly cloudy 10 - - - -
02/07:00pm 16.1 NW 21 30 1001.2 - 1.0 - Partly cloudy 10 - - - -
02/06:30pm 15.9 NW 23 34 1001.5 - 1.0 - Partly cloudy 10 - - - -
02/06:00pm 16.0 NW 21 32 1001.4 - 1.0 - Mostly cloudy 10 - - - -
02/05:34pm 15.9 NW 23 35 1001.5 - 1.0 - Partly cloudy 10 - - - -
02/05:30pm 15.7 NW 23 31 1001.5 - 1.0 - Partly cloudy 10 - - - -
02/05:00pm 15.5 NW 23 34 1001.7 - 1.0 - Partly cloudy 10 - - - -
02/04:30pm 15.2 NW 22 36 1001.8 - 1.0 - Partly cloudy 10 - - - -
02/04:09pm 15.2 NW 22 32 1002.0 - 1.0 - Partly cloudy 10 - - - -
02/04:00pm 15.1 NW 21 30 1002.1 - 1.0 - Partly cloudy 10 - - - -
02/03:30pm 14.9 NW 21 33 1002.4 - 1.0 - Partly cloudy 10 - - - -
02/03:00pm 15.1 NW 21 33 1002.7 - 1.0 - Cloudy 10 - - - -
02/02:52pm 14.8 NW 18 33 1002.7 - 1.0 - Partly cloudy 10 - - - -
02/02:38pm 13.8 NW 21 33 1002.8 - 1.0 - Partly cloudy 5 - - - -
02/02:33pm 14.6 NW 21 33 1002.8 - 1.0 - Partly cloudy 10 - - - -
02/02:30pm 15.1 NW 21 30 1002.7 - 1.0 - Partly cloudy 10 - - - -
02/02:12pm 15.1 NW 20 32 1002.8 - 1.0 - Partly cloudy 10 - - - -
02/02:00pm 14.2 NW 19 28 1003.1 - 1.0 - Partly cloudy 8 - - - -
02/01:30pm 15.0 NW 21 34 1003.1 - 0.6 - Partly cloudy 10 - - - -
02/01:09pm 15.0 NW 19 31 1003.3 - 0.6 - Partly cloudy 10 - - - -
02/01:00pm 14.6 NW 16 23 1003.5 - 0.6 - Partly cloudy 10 - - - -
02/12:43pm 13.6 NW 15 29 1003.9 - 0.6 - Partly cloudy 7 - - - -
02/12:30pm 13.5 NW 18 33 1004.2 - 0.6 - Partly cloudy 5 - - - -
02/12:26pm 13.5 NW 18 33 1004.3 - 0.6 - Partly cloudy 5 - - - -
02/12:23pm 13.8 NW 17 33 1004.3 - 0.4 - Partly cloudy 10 - - - -
02/12:18pm 14.4 NW 15 22 1004.2 - 0.4 - Partly cloudy 10 - - - -
02/12:13pm 14.8 NW 15 25 1004.4 - 0.4 - Partly cloudy 10 - - - -
02/12:04pm 13.9 NW 18 27 1004.6 - 0.4 - Partly cloudy 5 - - - -
02/12:01pm 13.7 NW 15 27 1004.6 - 0.2 - Partly cloudy 8 - - - -
02/12:00pm 13.9 NW 14 24 1004.6 - 0.2 - Cloudy 10 - - - -
02/11:30am 13.0 NW 14 21 1005.0 - 0.2 - Partly cloudy 7 - - - -
02/11:00am 14.6 WNW 14 20 1005.4 - 0.2 - Partly cloudy 10 - - - -
02/10:30am 14.9 WNW 11 16 1005.6 - 0.0 - Partly cloudy 10 - - - -
02/10:00am 12.7 WNW 9 13 1005.8 - 0.0 - Partly cloudy 10 - - - -
02/09:30am 13.0 W 7 9 1006.1 - 0.0 - Partly cloudy 10 - - - -
02/09:00am 9.4 W 1 4 1006.6 - 2.4 - Cloudy 10 - - - -
02/08:30am 7.8 CALM 0 0 1006.7 - 2.4 - Partly cloudy 10 - - - -
02/08:00am 7.1 ESE 1 3 1006.8 - 2.4 - - 10 - - - -
02/07:30am 6.3 ESE 1 3 1007.0 - 2.4 - Partly cloudy 10 - - - -
02/07:00am 6.2 NNW 4 5 1006.9 - 2.4 - Partly cloudy 10 - - - -
02/06:30am 6.3 CALM 0 0 1006.9 - 2.4 - Partly cloudy 10 - - - -
02/06:00am 6.4 NNE 2 4 1007.1 - 2.4 - Mostly cloudy 10 - - - -
02/05:30am 6.5 S 1 6 1007.1 - 2.4 - Partly cloudy 10 - - - -
02/05:00am 7.5 SSW 4 6 1007.3 - 2.4 - Partly cloudy 10 - - - -
02/04:30am 7.4 SW 4 8 1007.3 - 2.4 - Partly cloudy 10 - - - -
02/04:00am 7.3 W 5 7 1007.3 - 2.4 - Partly cloudy 10 - - - -
02/03:30am 7.4 W 7 9 1007.6 - 2.4 - Partly cloudy 10 - - - -
02/03:00am 6.5 WNW 3 5 1007.7 - 2.2 - Cloudy 10 - - - -
02/02:30am 7.4 W 3 5 1007.7 - 2.2 - Partly cloudy 10 - - - -
02/02:00am 8.0 NW 7 9 1007.7 - 2.2 - Partly cloudy 10 - - - -
02/01:30am 7.1 NW 3 5 1007.8 - 2.2 - Partly cloudy 10 - - - -
02/01:00am 7.3 WNW 5 7 1007.7 - 2.2 - - 10 - - - -
02/12:30am 7.8 W 8 10 1007.6 - 2.2 - - 10 - - - -
02/12:00am 8.6 WNW 10 13 1007.8 - 2.2 - Mostly cloudy 10 - - - -
 
Date/Time
EST
Temp

°C
Wind Pressure Rain
since 9am
mm
Weather Cloud Vis
km
Sea
Height
m
Swell
Dir
 
Speed
knots
Gust
knots
hPa Trend Height
m
Period
s
Dir
01/11:30pm 8.1 WNW 6 9 1007.7 - 2.2 - - 10 - - - -
01/11:00pm 8.5 WNW 10 13 1007.5 - 2.2 - - 10 - - - -
01/10:30pm 8.9 NW 6 8 1007.5 - 2.2 - Partly cloudy 10 - - - -
01/10:00pm 8.7 W 8 11 1007.5 - 2.2 - Partly cloudy 10 - - - -
01/09:30pm 9.2 W 11 15 1007.3 - 2.2 - - 10 - - - -
01/09:00pm 9.3 W 12 15 1006.9 - 2.2 - Mostly clear 10 - - - -
01/08:30pm 9.5 W 17 23 1006.4 - 2.2 - Partly cloudy 10 - - - -
01/08:00pm 9.6 W 13 18 1006.1 - 2.2 - Partly cloudy 10 - - - -
01/07:30pm 9.5 WSW 13 20 1005.4 - 2.2 - Partly cloudy 10 - - - -
01/07:00pm 9.5 W 17 22 1004.8 - 2.0 - Partly cloudy 10 - - - -
01/06:30pm 10.0 W 17 23 1004.1 - 2.0 - Partly cloudy 10 - - - -

Other Formats:

Comma delimited format used in spreadsheet applications
http://www.bom.gov.au/fwo/IDT60701/IDT60701.95957.axf

JavaScript Object Notation format (JSON) in row-major order
http://www.bom.gov.au/fwo/IDT60701/IDT60701.95957.json